Hauptseite
METAR-TAF:

METAR-TAF

Flughäfen :

Flughafen Kufra

Kufra-Oasen, Libyen

Breite: 24-13N, Länge: 023-18E, Höhe: 417 m

METAR: fehlend

Zeit: 07:14 (05:14 UTC)

Prognose

Neuester Wetterbericht von vor 18 Stunden und 14 Minuten, um 11:00 UTC
Gültige Prognose vom 24 um 12 UTC bis 25 um 12 UTC
Wind 2 kt aus unterschiedlichen Richtungen
Sichtweite 10 km oder mehr
keine Wolken unter 1500 m und keine Kumulonimbus oder Gewitterwolken
Übergehend zu
vom 24 um 15 UTC bis 24 um 17 UTC
Wind 10 kt aus Nord

TAF: HLKF 241100Z 2412/2512 VRB02KT CAVOK BECMG 2415/2417 36010KT

Wetterbeobachtungen und Prognosen von mehr als 4000 Flughäfen (METAR und TAF Bericht).

Die verfügbaren Stationen werden durch gelbe und rote Markierungen auf der Karte dargestellt.

Führen Sie die Maus auf sie, um den Namen der Station zu sehen.

Darauf klicken, um die Beobachtung von Wetterbeobachtungen und Prognosen zu sehen.

Um die Karte zu ändern : klicken Sie auf den grünen Tasten mit einem schwarzen Kreuz Zum Vergrößern, auf den grünen Button mit einem Gedankenstrich zu verkleinern, oder auf die grünen Pfeile für benachbarte Karten.


METAR-TAF: